createdAt,value
2018-09-08T00:01:59.823Z,28.85
2018-09-08T00:04:30.568Z,32.53
2018-09-08T00:07:06.379Z,27.42
2018-09-08T00:09:37.530Z,31.27
2018-09-08T00:12:09.872Z,28.70
2018-09-08T00:14:37.345Z,25.23
2018-09-08T00:17:10.871Z,28.67
2018-09-08T00:19:44.541Z,30.70
2018-09-08T00:22:18.095Z,29.77
2018-09-08T00:24:53.693Z,29.72
2018-09-08T00:27:46.871Z,32.15
2018-09-08T00:30:17.452Z,29.17
2018-09-08T00:32:48.002Z,25.88
2018-09-08T00:35:19.248Z,25.30
2018-09-08T00:37:56.944Z,25.30
2018-09-08T00:40:25.174Z,22.25
2018-09-08T00:42:53.185Z,26.87
2018-09-08T00:45:27.062Z,25.62
2018-09-08T00:47:55.216Z,27.15
2018-09-08T00:50:23.295Z,25.17
2018-09-08T00:52:51.422Z,26.75
2018-09-08T00:55:19.536Z,23.38
2018-09-08T00:57:47.593Z,24.07
2018-09-08T01:00:15.794Z,22.07
2018-09-08T01:02:43.888Z,21.57
2018-09-08T01:05:12.035Z,19.15
2018-09-08T01:07:40.129Z,18.02
2018-09-08T01:10:12.093Z,18.87
2018-09-08T01:12:40.151Z,19.70
2018-09-08T01:15:08.314Z,20.48
2018-09-08T01:17:36.420Z,19.40
2018-09-08T01:20:04.648Z,21.68
2018-09-08T01:22:32.899Z,25.02
2018-09-08T01:25:00.919Z,22.95
2018-09-08T01:27:29.088Z,26.52
2018-09-08T01:29:57.125Z,29.55
2018-09-08T01:32:25.227Z,29.57
2018-09-08T01:34:53.413Z,30.62
2018-09-08T01:37:21.588Z,30.57
2018-09-08T01:39:49.729Z,31.77
2018-09-08T01:42:17.816Z,29.60
2018-09-08T01:44:46.086Z,30.77
2018-09-08T01:47:14.204Z,34.23
2018-09-08T01:49:42.267Z,32.17
2018-09-08T01:52:10.320Z,35.40
2018-09-08T01:54:38.499Z,35.48
2018-09-08T01:57:06.904Z,36.10
2018-09-08T01:59:34.938Z,35.63
2018-09-08T02:02:03.163Z,36.23
2018-09-08T02:04:31.214Z,38.17
2018-09-08T02:06:59.388Z,37.10
2018-09-08T02:09:27.469Z,39.35
2018-09-08T02:11:55.511Z,39.50
2018-09-08T02:14:23.731Z,37.88
2018-09-08T02:16:51.784Z,37.40
2018-09-08T02:19:19.971Z,34.78
2018-09-08T02:21:48.112Z,32.73
2018-09-08T02:24:16.219Z,28.35
2018-09-08T02:26:44.375Z,27.10
2018-09-08T02:29:12.484Z,25.95
2018-09-08T02:31:40.545Z,25.82
2018-09-08T02:34:22.213Z,23.85
2018-09-08T02:36:50.421Z,22.87
2018-09-08T02:39:18.479Z,22.45
2018-09-08T02:41:46.660Z,22.05
2018-09-08T02:44:14.720Z,22.87
2018-09-08T02:46:57.627Z,22.30
2018-09-08T02:50:41.528Z,23.77
2018-09-08T02:53:18.885Z,22.55
2018-09-08T02:55:56.330Z,22.00
2018-09-08T02:58:25.026Z,22.02
2018-09-08T03:00:53.744Z,23.32
2018-09-08T03:03:28.097Z,22.05
2018-09-08T03:06:04.099Z,22.55
2018-09-08T03:08:34.352Z,22.50
2018-09-08T03:11:04.223Z,24.50
2018-09-08T03:13:34.788Z,21.27
2018-09-08T03:16:05.041Z,21.42
2018-09-08T03:18:34.050Z,22.03
2018-09-08T03:21:03.926Z,20.17
2018-09-08T03:23:33.120Z,20.57
2018-09-08T03:26:01.693Z,23.38
2018-09-08T03:28:28.591Z,25.12
2018-09-08T03:30:55.293Z,22.70
2018-09-08T03:33:22.181Z,26.77
2018-09-08T03:35:48.971Z,23.57
2018-09-08T03:38:15.735Z,27.45
2018-09-08T03:40:42.491Z,29.85
2018-09-08T03:43:09.313Z,26.63
2018-09-08T03:45:36.079Z,28.38
2018-09-08T03:48:02.809Z,33.35
2018-09-08T03:50:29.561Z,29.77
2018-09-08T03:52:56.420Z,30.17
2018-09-08T03:55:23.233Z,31.02
2018-09-08T03:57:50.103Z,27.53
2018-09-08T04:00:16.833Z,27.62
2018-09-08T04:02:44.929Z,28.15
2018-09-08T04:05:13.053Z,28.12
2018-09-08T04:07:41.153Z,28.10
2018-09-08T04:10:09.117Z,28.67
2018-09-08T04:12:37.209Z,27.67
2018-09-08T04:15:05.292Z,29.50
2018-09-08T04:17:33.326Z,30.68
2018-09-08T04:20:02.273Z,31.85
2018-09-08T04:22:39.206Z,26.00
2018-09-08T04:25:17.909Z,28.25
2018-09-08T04:27:49.422Z,26.07
2018-09-08T04:30:17.571Z,25.10
2018-09-08T04:32:45.638Z,23.30
2018-09-08T04:35:13.720Z,24.95
2018-09-08T04:37:41.879Z,26.80
2018-09-08T04:40:10.068Z,25.02
2018-09-08T04:42:41.047Z,26.80
2018-09-08T04:45:11.647Z,25.08
2018-09-08T04:47:42.268Z,26.23
2018-09-08T04:50:10.428Z,23.07
2018-09-08T04:52:41.026Z,22.77
2018-09-08T04:55:12.264Z,20.80
2018-09-08T04:57:43.021Z,20.17
2018-09-08T05:00:13.408Z,21.82
2018-09-08T05:02:44.299Z,21.23
2018-09-08T05:05:14.424Z,18.90
2018-09-08T05:07:44.512Z,18.77
2018-09-08T05:10:12.657Z,18.20
2018-09-08T05:12:40.800Z,17.48
2018-09-08T05:15:09.032Z,19.20
2018-09-08T05:17:37.056Z,17.40
2018-09-08T05:20:05.835Z,20.82
2018-09-08T05:22:33.916Z,21.97
2018-09-08T05:25:02.124Z,15.50
2018-09-08T05:27:30.492Z,18.65
2018-09-08T05:29:58.585Z,22.00
2018-09-08T05:32:26.612Z,18.17
2018-09-08T05:34:54.817Z,20.40
2018-09-08T05:37:22.870Z,22.75
2018-09-08T05:39:51.084Z,20.37
2018-09-08T05:42:19.144Z,17.90
2018-09-08T05:44:47.404Z,16.73
2018-09-08T05:47:15.652Z,17.90
2018-09-08T05:49:43.874Z,17.10
2018-09-08T05:52:11.955Z,18.97
2018-09-08T05:54:40.105Z,18.10
2018-09-08T05:57:08.132Z,18.50
2018-09-08T05:59:36.253Z,19.75
2018-09-08T06:02:04.652Z,19.42
2018-09-08T06:04:32.837Z,18.70
2018-09-08T06:07:02.739Z,16.87
2018-09-08T06:09:32.054Z,17.10
2018-09-08T06:12:00.612Z,16.82
2018-09-08T06:14:29.844Z,16.45
2018-09-08T06:16:57.867Z,18.00
2018-09-08T06:19:26.075Z,17.80
2018-09-08T06:21:54.124Z,17.87
2018-09-08T06:24:22.435Z,16.67
2018-09-08T06:26:50.496Z,17.50
2018-09-08T06:29:18.562Z,17.35
2018-09-08T06:31:46.979Z,16.70
2018-09-08T06:34:15.406Z,19.25
2018-09-08T06:36:43.669Z,16.05
2018-09-08T06:39:13.041Z,16.05
2018-09-08T06:41:41.295Z,16.65
2018-09-08T06:44:09.356Z,17.37
2018-09-08T06:46:37.419Z,16.75
2018-09-08T06:49:05.762Z,15.85
2018-09-08T06:51:34.672Z,15.05
2018-09-08T06:54:03.089Z,14.18
2018-09-08T06:56:31.132Z,12.10
2018-09-08T06:58:59.743Z,12.80
2018-09-08T07:01:28.023Z,11.70
2018-09-08T07:03:56.305Z,9.68
2018-09-08T07:06:24.555Z,11.68
2018-09-08T07:08:52.760Z,11.22
2018-09-08T07:11:20.839Z,11.70
2018-09-08T07:13:49.301Z,12.63
2018-09-08T07:16:17.476Z,12.37
2018-09-08T07:18:45.845Z,13.58
2018-09-08T07:21:13.960Z,13.78
2018-09-08T07:23:41.984Z,12.73
2018-09-08T07:26:10.203Z,13.10
2018-09-08T07:28:38.265Z,13.15
2018-09-08T07:31:06.559Z,12.40
2018-09-08T07:33:34.717Z,12.13
2018-09-08T07:36:02.976Z,8.47
2018-09-08T07:38:31.076Z,9.73
2018-09-08T07:40:59.135Z,8.60
2018-09-08T07:43:27.208Z,10.08
2018-09-08T07:45:55.271Z,8.98
2018-09-08T07:48:23.337Z,9.80
2018-09-08T07:50:51.485Z,7.90
2018-09-08T07:53:19.553Z,9.20
2018-09-08T07:55:47.705Z,8.20
2018-09-08T07:58:15.856Z,8.50
2018-09-08T08:00:43.920Z,7.90
2018-09-08T08:03:11.964Z,7.78
2018-09-08T08:05:39.961Z,7.50
2018-09-08T08:08:08.160Z,7.35
2018-09-08T08:10:36.213Z,7.30
2018-09-08T08:13:04.425Z,7.80
2018-09-08T08:15:32.456Z,7.60
2018-09-08T08:18:00.665Z,8.85
2018-09-08T08:20:28.723Z,9.00
2018-09-08T08:22:56.867Z,8.80
2018-09-08T08:25:25.083Z,8.45
2018-09-08T08:27:53.148Z,7.10
2018-09-08T08:30:21.208Z,7.15
2018-09-08T08:32:49.272Z,9.00
2018-09-08T08:35:17.359Z,8.40
2018-09-08T08:37:45.445Z,9.65
2018-09-08T08:40:13.508Z,9.10
2018-09-08T08:42:41.564Z,9.13
2018-09-08T08:45:09.652Z,8.05
2018-09-08T08:47:37.716Z,9.03
2018-09-08T08:50:16.962Z,9.38
2018-09-08T08:52:56.180Z,9.20
2018-09-08T08:55:24.264Z,8.90
2018-09-08T08:57:52.384Z,8.15
2018-09-08T09:00:20.397Z,8.70
2018-09-08T09:02:48.609Z,8.83
2018-09-08T09:05:16.673Z,7.50
2018-09-08T09:07:44.750Z,6.90
2018-09-08T09:10:12.805Z,8.00
2018-09-08T09:12:40.903Z,7.25
2018-09-08T09:15:09.421Z,7.30
2018-09-08T09:17:37.252Z,7.65
2018-09-08T09:20:16.636Z,7.67
2018-09-08T09:22:55.833Z,6.60
2018-09-08T09:25:23.850Z,6.45
2018-09-08T09:27:52.324Z,6.30
2018-09-08T09:30:20.867Z,6.65
2018-09-08T09:32:49.032Z,5.72
2018-09-08T09:35:18.449Z,6.15
2018-09-08T09:37:46.612Z,7.15
2018-09-08T09:40:16.125Z,6.95
2018-09-08T09:42:44.195Z,7.20
2018-09-08T09:45:12.448Z,6.25
2018-09-08T09:47:40.637Z,6.00
2018-09-08T09:50:10.053Z,6.30
2018-09-08T09:52:38.355Z,5.73
2018-09-08T09:55:06.597Z,4.90
2018-09-08T09:57:34.864Z,4.10
2018-09-08T10:00:03.064Z,4.10
2018-09-08T10:02:38.467Z,4.58
2018-09-08T10:05:14.557Z,4.50
2018-09-08T10:07:42.824Z,4.00
2018-09-08T10:10:12.783Z,4.67
2018-09-08T10:12:41.020Z,8.35
2018-09-08T10:15:09.541Z,4.95
2018-09-08T10:17:38.330Z,4.90
2018-09-08T10:20:08.337Z,6.72
2018-09-08T10:22:36.376Z,5.57
2018-09-08T10:25:04.784Z,5.12
2018-09-08T10:27:32.920Z,5.80
2018-09-08T10:30:01.685Z,5.85
2018-09-08T10:32:29.415Z,5.62
2018-09-08T10:34:57.464Z,6.45
2018-09-08T10:37:25.767Z,5.80
2018-09-08T10:39:53.837Z,4.97
2018-09-08T10:42:22.015Z,5.17
2018-09-08T10:44:50.165Z,5.28
2018-09-08T10:47:18.185Z,4.90
2018-09-08T10:49:46.488Z,5.92
2018-09-08T10:52:48.116Z,5.37
2018-09-08T10:55:16.143Z,6.20
2018-09-08T10:57:44.234Z,5.80
2018-09-08T11:00:12.792Z,6.17
2018-09-08T11:02:41.037Z,5.60
2018-09-08T11:05:09.176Z,5.55
2018-09-08T11:07:37.225Z,5.70
2018-09-08T11:10:05.925Z,5.53
2018-09-08T11:12:34.188Z,6.60
2018-09-08T11:15:02.376Z,6.10
2018-09-08T11:17:30.449Z,6.70
2018-09-08T11:19:58.942Z,7.05
2018-09-08T11:22:27.103Z,6.53
2018-09-08T11:24:55.292Z,5.95
2018-09-08T11:27:23.471Z,6.70
2018-09-08T11:29:51.641Z,6.78
2018-09-08T11:32:19.839Z,6.25
2018-09-08T11:34:47.988Z,6.87
2018-09-08T11:37:16.164Z,6.30
2018-09-08T11:39:44.319Z,5.92
2018-09-08T11:42:12.431Z,6.10
